Route Details

Aircraft Information
Group: North America Fleet
Types: B738, B752, B762, B763
Route Data
Distance: 677nm
Duration: 2h 14m
Origin METAR: KAFW 160053Z 16010KT 10SM FEW060 BKN250 35/16 A2986 RMK AO2 SLP093 T03500161
Dest. METAR: KRFD 160054Z 05003KT 10SM SCT100 OVC250 22/17 A3009 RMK AO2 SLP188 T02220167 $
Freight Data
(for Aug 16, 2022)
Load Factor:
55%
Manifested Cargo: 51,521lbs
Financial History
Total Freight: 103,640lbs
Average Load: 0lbs/flt
Fuel Used: 19,042lbs
Avg. Fuel Used: 0lbs/flt
Fuel Expense: $15,424
Avg. Fuel Expense: $0
Avg. Fuel Cost: $0/lbs
Total Gross Income: $147,169
Pilot Pay: $259
Total Expenses: $15,946
Total Revenue: $115,305
Average Revenue: $0

Capitol Logistics 458




KAFW
Fort Worth Alliance Airport
Fort Worth, Texas
KRFD
Chicago/Rockford International Airport
Rockford, Illinois

Activity Log

Date Flight Route Aircraft Duration
04/29/2020 CPX253 TEX7 GRABE RZC J105 VORIN B763 1h 50m